Главная страница
METAR-TAF:

METAR-TAF

Аэропорты :

Челябинск, Россия

широта: 55-10N, долгота: 061-24E, высота над уровнем моря: 234 м

Текущие метеонаблюдения

Эта сводка был подготовлена 38 минут назад, в 19:00 UTC
Ветер 2 Узел от южный-юго-западный
Температура -1°C
Влажность 93%
Давление 1027 hPa
Видимость 10 км и более
Отдельные облака на высоте 2000 фута, Кучево-дождевые.

METAR: USCC 191900Z 21001MPS 9999 SCT020CB M01/M02 Q1027 R27/150050 TEMPO 1100 SHSN VV005 RMK QFE750

Время: 00:38 (19:38 UTC)

Прогноз

Эта сводка был подготовлена 2 часа и 38 минут назад, в 17:00 UTC
Прогноз действительный с 19-го 18 UTC до 20-го 18 UTC
Ветер 10 Узел от юго-западный
Видимость: 5000 м
Рассеянная облачность на высоте 1100 фута, Кучево-дождевые.
дымка
временами
С 19-го 18 UTC до 20-го 05 UTC
Видимость: 2100 м
на высоте 700 фута
небольшие ливневые снегопады, дымка

TAF: USCC 191700Z 1918/2018 23005MPS 5000 BR BKN011CB TEMPO 1918/2005 2100 -SHSN BR VV007

Метеонаблюдения и прогнозы для более 4000 аэропортов (сводки METAR и TAF).

Имеющиеся станции представлены на карте желтыми и красными точками.

Чтобы увидеть название станции, наведите на нее мышь.

Затем щелкните, чтобы увидеть метеонаблюдения и метеопрогнозы.

Управление картой: чтобы увеличить масштаб, щелкните зеленые кнопки с черным крестиком; чтобы уменьшить масштаб, щелкните зеленую кнопку с тире; для просмотра соседних карт щелкайте зеленые стрелки.


METAR-TAF: